sensor_id;sensor_type;location;lat;lon;timestamp;temperature;humidity
38514;DHT22;24282;48.400;10.808;2023-04-25T00:01:11;7.40;76.80
38514;DHT22;24282;48.400;10.808;2023-04-25T00:03:38;7.30;76.60
38514;DHT22;24282;48.400;10.808;2023-04-25T00:06:04;7.30;76.60
38514;DHT22;24282;48.400;10.808;2023-04-25T00:08:30;7.30;76.40
38514;DHT22;24282;48.400;10.808;2023-04-25T00:10:57;7.30;76.50
38514;DHT22;24282;48.400;10.808;2023-04-25T00:13:22;7.30;76.60
38514;DHT22;24282;48.400;10.808;2023-04-25T00:15:48;7.30;77.00
38514;DHT22;24282;48.400;10.808;2023-04-25T00:18:15;7.30;77.20
38514;DHT22;24282;48.400;10.808;2023-04-25T00:20:40;7.30;76.90
38514;DHT22;24282;48.400;10.808;2023-04-25T00:23:10;7.30;76.80
38514;DHT22;24282;48.400;10.808;2023-04-25T00:25:35;7.30;76.50
38514;DHT22;24282;48.400;10.808;2023-04-25T00:28:01;7.30;76.40
38514;DHT22;24282;48.400;10.808;2023-04-25T00:30:27;7.20;76.40
38514;DHT22;24282;48.400;10.808;2023-04-25T00:32:53;7.20;76.50
38514;DHT22;24282;48.400;10.808;2023-04-25T00:35:19;7.20;76.70
38514;DHT22;24282;48.400;10.808;2023-04-25T00:37:45;7.20;76.90
38514;DHT22;24282;48.400;10.808;2023-04-25T00:40:11;7.10;77.00
38514;DHT22;24282;48.400;10.808;2023-04-25T00:42:37;7.10;77.20
38514;DHT22;24282;48.400;10.808;2023-04-25T00:45:05;7.10;77.20
38514;DHT22;24282;48.400;10.808;2023-04-25T00:47:33;7.10;77.30
38514;DHT22;24282;48.400;10.808;2023-04-25T00:49:58;7.10;77.20
38514;DHT22;24282;48.400;10.808;2023-04-25T00:52:24;7.10;77.30
38514;DHT22;24282;48.400;10.808;2023-04-25T00:54:50;7.00;77.20
38514;DHT22;24282;48.400;10.808;2023-04-25T00:57:16;7.00;77.20
38514;DHT22;24282;48.400;10.808;2023-04-25T00:59:45;7.00;77.10
38514;DHT22;24282;48.400;10.808;2023-04-25T01:02:12;6.90;77.10
38514;DHT22;24282;48.400;10.808;2023-04-25T01:04:38;6.90;77.30
38514;DHT22;24282;48.400;10.808;2023-04-25T01:07:04;6.90;77.40
38514;DHT22;24282;48.400;10.808;2023-04-25T01:09:30;6.90;77.60
38514;DHT22;24282;48.400;10.808;2023-04-25T01:11:57;6.90;77.70
38514;DHT22;24282;48.400;10.808;2023-04-25T01:14:23;6.90;77.80
38514;DHT22;24282;48.400;10.808;2023-04-25T01:16:49;6.90;78.00
38514;DHT22;24282;48.400;10.808;2023-04-25T01:19:17;6.80;77.90
38514;DHT22;24282;48.400;10.808;2023-04-25T01:21:45;6.90;78.00
38514;DHT22;24282;48.400;10.808;2023-04-25T01:24:12;6.90;78.20
38514;DHT22;24282;48.400;10.808;2023-04-25T01:26:40;6.90;78.30
38514;DHT22;24282;48.400;10.808;2023-04-25T01:29:10;6.90;78.10
38514;DHT22;24282;48.400;10.808;2023-04-25T01:31:36;6.90;78.10
38514;DHT22;24282;48.400;10.808;2023-04-25T01:34:04;6.80;78.10
38514;DHT22;24282;48.400;10.808;2023-04-25T01:36:30;6.80;78.10
38514;DHT22;24282;48.400;10.808;2023-04-25T01:38:56;6.80;78.20
38514;DHT22;24282;48.400;10.808;2023-04-25T01:41:22;6.70;78.50
38514;DHT22;24282;48.400;10.808;2023-04-25T01:43:49;6.70;78.60
38514;DHT22;24282;48.400;10.808;2023-04-25T01:46:16;6.70;78.60
38514;DHT22;24282;48.400;10.808;2023-04-25T01:48:43;6.80;78.50
38514;DHT22;24282;48.400;10.808;2023-04-25T01:51:08;6.70;78.40
38514;DHT22;24282;48.400;10.808;2023-04-25T01:53:35;6.70;78.20
38514;DHT22;24282;48.400;10.808;2023-04-25T01:56:02;6.70;78.10
38514;DHT22;24282;48.400;10.808;2023-04-25T01:58:32;6.60;78.00
38514;DHT22;24282;48.400;10.808;2023-04-25T02:00:58;6.60;78.20
38514;DHT22;24282;48.400;10.808;2023-04-25T02:03:31;6.60;78.40
38514;DHT22;24282;48.400;10.808;2023-04-25T02:05:57;6.60;78.70
38514;DHT22;24282;48.400;10.808;2023-04-25T02:08:24;6.60;78.80
38514;DHT22;24282;48.400;10.808;2023-04-25T02:10:53;6.60;79.00
38514;DHT22;24282;48.400;10.808;2023-04-25T02:13:19;6.60;79.30
38514;DHT22;24282;48.400;10.808;2023-04-25T02:15:58;6.70;79.30
38514;DHT22;24282;48.400;10.808;2023-04-25T02:18:23;6.60;79.30
38514;DHT22;24282;48.400;10.808;2023-04-25T02:20:50;6.60;79.30
38514;DHT22;24282;48.400;10.808;2023-04-25T02:23:16;6.60;79.10
38514;DHT22;24282;48.400;10.808;2023-04-25T02:25:42;6.70;78.90
38514;DHT22;24282;48.400;10.808;2023-04-25T02:28:07;6.70;78.90
38514;DHT22;24282;48.400;10.808;2023-04-25T02:30:34;6.70;78.90
38514;DHT22;24282;48.400;10.808;2023-04-25T02:33:04;6.70;79.00
38514;DHT22;24282;48.400;10.808;2023-04-25T02:35:30;6.60;79.10
38514;DHT22;24282;48.400;10.808;2023-04-25T02:37:55;6.60;79.50
38514;DHT22;24282;48.400;10.808;2023-04-25T02:40:21;6.70;79.50
38514;DHT22;24282;48.400;10.808;2023-04-25T02:42:47;6.70;79.40
38514;DHT22;24282;48.400;10.808;2023-04-25T02:45:14;6.70;79.40
38514;DHT22;24282;48.400;10.808;2023-04-25T02:47:40;6.70;79.40
38514;DHT22;24282;48.400;10.808;2023-04-25T02:50:06;6.70;79.50
38514;DHT22;24282;48.400;10.808;2023-04-25T02:52:32;6.80;79.40
38514;DHT22;24282;48.400;10.808;2023-04-25T02:55:08;6.80;79.30
38514;DHT22;24282;48.400;10.808;2023-04-25T02:57:35;6.80;79.70
38514;DHT22;24282;48.400;10.808;2023-04-25T03:00:00;6.80;79.90
38514;DHT22;24282;48.400;10.808;2023-04-25T03:02:26;6.80;80.00
38514;DHT22;24282;48.400;10.808;2023-04-25T03:04:52;6.80;80.00
38514;DHT22;24282;48.400;10.808;2023-04-25T03:07:18;6.80;80.30
38514;DHT22;24282;48.400;10.808;2023-04-25T03:09:43;6.80;80.50
38514;DHT22;24282;48.400;10.808;2023-04-25T03:12:09;6.90;80.70
38514;DHT22;24282;48.400;10.808;2023-04-25T03:14:36;6.90;80.90
38514;DHT22;24282;48.400;10.808;2023-04-25T03:17:01;7.00;81.00
38514;DHT22;24282;48.400;10.808;2023-04-25T03:19:27;7.00;81.20
38514;DHT22;24282;48.400;10.808;2023-04-25T03:21:53;7.10;81.50
38514;DHT22;24282;48.400;10.808;2023-04-25T03:24:19;7.10;81.80
38514;DHT22;24282;48.400;10.808;2023-04-25T03:26:45;7.10;82.10
38514;DHT22;24282;48.400;10.808;2023-04-25T03:29:10;7.20;82.10
38514;DHT22;24282;48.400;10.808;2023-04-25T03:31:38;7.20;82.00
38514;DHT22;24282;48.400;10.808;2023-04-25T03:34:04;7.20;82.00
38514;DHT22;24282;48.400;10.808;2023-04-25T03:36:29;7.20;81.80
38514;DHT22;24282;48.400;10.808;2023-04-25T03:38:55;7.30;81.80
38514;DHT22;24282;48.400;10.808;2023-04-25T03:41:21;7.40;81.00
38514;DHT22;24282;48.400;10.808;2023-04-25T03:43:52;7.40;80.90
38514;DHT22;24282;48.400;10.808;2023-04-25T03:46:17;7.40;80.90
38514;DHT22;24282;48.400;10.808;2023-04-25T03:48:45;7.40;81.00
38514;DHT22;24282;48.400;10.808;2023-04-25T03:51:17;7.40;80.80
38514;DHT22;24282;48.400;10.808;2023-04-25T03:53:44;7.50;80.20
38514;DHT22;24282;48.400;10.808;2023-04-25T03:56:18;7.50;80.50
38514;DHT22;24282;48.400;10.808;2023-04-25T03:58:46;7.50;80.40
38514;DHT22;24282;48.400;10.808;2023-04-25T04:01:14;7.50;79.50
38514;DHT22;24282;48.400;10.808;2023-04-25T04:03:40;7.50;79.40
38514;DHT22;24282;48.400;10.808;2023-04-25T04:06:07;7.50;79.60
38514;DHT22;24282;48.400;10.808;2023-04-25T04:08:40;7.50;79.90
38514;DHT22;24282;48.400;10.808;2023-04-25T04:11:05;7.50;80.10
38514;DHT22;24282;48.400;10.808;2023-04-25T04:13:32;7.50;80.30
38514;DHT22;24282;48.400;10.808;2023-04-25T04:15:58;7.50;80.30
38514;DHT22;24282;48.400;10.808;2023-04-25T04:18:23;7.50;80.10
38514;DHT22;24282;48.400;10.808;2023-04-25T04:20:50;7.50;80.20
38514;DHT22;24282;48.400;10.808;2023-04-25T04:23:16;7.40;80.20
38514;DHT22;24282;48.400;10.808;2023-04-25T04:25:43;7.40;80.30
38514;DHT22;24282;48.400;10.808;2023-04-25T04:28:28;7.50;80.70
38514;DHT22;24282;48.400;10.808;2023-04-25T04:30:59;7.50;80.60
38514;DHT22;24282;48.400;10.808;2023-04-25T04:33:26;7.50;80.20
38514;DHT22;24282;48.400;10.808;2023-04-25T04:35:57;7.50;79.90
38514;DHT22;24282;48.400;10.808;2023-04-25T04:38:23;7.60;79.90
38514;DHT22;24282;48.400;10.808;2023-04-25T04:40:52;7.60;80.10
38514;DHT22;24282;48.400;10.808;2023-04-25T04:43:29;7.60;80.00
38514;DHT22;24282;48.400;10.808;2023-04-25T04:46:02;7.50;79.80
38514;DHT22;24282;48.400;10.808;2023-04-25T04:48:40;7.60;79.80
38514;DHT22;24282;48.400;10.808;2023-04-25T04:51:29;7.60;80.20
38514;DHT22;24282;48.400;10.808;2023-04-25T04:54:21;7.60;80.20
38514;DHT22;24282;48.400;10.808;2023-04-25T04:56:59;7.60;80.00
38514;DHT22;24282;48.400;10.808;2023-04-25T04:59:43;7.60;79.60
38514;DHT22;24282;48.400;10.808;2023-04-25T05:02:27;7.60;79.40
38514;DHT22;24282;48.400;10.808;2023-04-25T05:05:22;7.70;79.20
38514;DHT22;24282;48.400;10.808;2023-04-25T05:08:04;7.70;79.00
38514;DHT22;24282;48.400;10.808;2023-04-25T05:10:44;7.70;78.80
38514;DHT22;24282;48.400;10.808;2023-04-25T05:13:20;7.70;78.60
38514;DHT22;24282;48.400;10.808;2023-04-25T05:16:02;7.80;78.60
38514;DHT22;24282;48.400;10.808;2023-04-25T05:18:51;7.80;78.30
38514;DHT22;24282;48.400;10.808;2023-04-25T05:21:39;7.70;78.10
38514;DHT22;24282;48.400;10.808;2023-04-25T05:24:12;7.80;78.10
38514;DHT22;24282;48.400;10.808;2023-04-25T05:27:07;7.80;78.20
38514;DHT22;24282;48.400;10.808;2023-04-25T05:29:53;7.80;78.30
38514;DHT22;24282;48.400;10.808;2023-04-25T05:32:30;7.80;78.50
38514;DHT22;24282;48.400;10.808;2023-04-25T05:34:56;7.90;78.50
38514;DHT22;24282;48.400;10.808;2023-04-25T05:37:25;7.90;78.60
38514;DHT22;24282;48.400;10.808;2023-04-25T05:39:55;7.90;78.60
38514;DHT22;24282;48.400;10.808;2023-04-25T05:42:49;7.90;78.80
38514;DHT22;24282;48.400;10.808;2023-04-25T05:45:21;7.90;79.10
38514;DHT22;24282;48.400;10.808;2023-04-25T05:48:05;7.90;79.20
38514;DHT22;24282;48.400;10.808;2023-04-25T05:51:03;8.00;78.70
38514;DHT22;24282;48.400;10.808;2023-04-25T05:53:37;8.00;78.80
38514;DHT22;24282;48.400;10.808;2023-04-25T05:56:03;8.00;78.80
38514;DHT22;24282;48.400;10.808;2023-04-25T05:58:29;8.00;79.00
38514;DHT22;24282;48.400;10.808;2023-04-25T06:00:56;8.00;79.20
38514;DHT22;24282;48.400;10.808;2023-04-25T06:03:22;8.00;79.00
38514;DHT22;24282;48.400;10.808;2023-04-25T06:05:49;8.00;78.90
38514;DHT22;24282;48.400;10.808;2023-04-25T06:08:15;8.10;78.80
38514;DHT22;24282;48.400;10.808;2023-04-25T06:10:42;8.10;78.60
38514;DHT22;24282;48.400;10.808;2023-04-25T06:13:07;8.10;78.60
38514;DHT22;24282;48.400;10.808;2023-04-25T06:15:35;8.10;78.70
38514;DHT22;24282;48.400;10.808;2023-04-25T06:18:01;8.20;78.30
38514;DHT22;24282;48.400;10.808;2023-04-25T06:20:26;8.20;78.20
38514;DHT22;24282;48.400;10.808;2023-04-25T06:22:55;8.30;77.80
38514;DHT22;24282;48.400;10.808;2023-04-25T06:25:30;8.40;77.50
38514;DHT22;24282;48.400;10.808;2023-04-25T06:27:56;8.40;77.90
38514;DHT22;24282;48.400;10.808;2023-04-25T06:30:23;8.50;78.10
38514;DHT22;24282;48.400;10.808;2023-04-25T06:32:54;8.60;77.30
38514;DHT22;24282;48.400;10.808;2023-04-25T06:35:21;8.70;76.50
38514;DHT22;24282;48.400;10.808;2023-04-25T06:37:47;8.70;76.20
38514;DHT22;24282;48.400;10.808;2023-04-25T06:40:12;8.70;76.20
38514;DHT22;24282;48.400;10.808;2023-04-25T06:42:38;8.80;75.60
38514;DHT22;24282;48.400;10.808;2023-04-25T06:45:24;8.70;75.90
38514;DHT22;24282;48.400;10.808;2023-04-25T06:47:52;8.70;75.80
38514;DHT22;24282;48.400;10.808;2023-04-25T06:50:18;8.70;75.80
38514;DHT22;24282;48.400;10.808;2023-04-25T06:52:44;8.60;76.40
38514;DHT22;24282;48.400;10.808;2023-04-25T06:55:10;8.70;76.10
38514;DHT22;24282;48.400;10.808;2023-04-25T06:57:51;8.60;75.90
38514;DHT22;24282;48.400;10.808;2023-04-25T07:00:46;8.70;75.00
38514;DHT22;24282;48.400;10.808;2023-04-25T07:03:11;8.80;74.10
38514;DHT22;24282;48.400;10.808;2023-04-25T07:05:37;8.80;74.40
38514;DHT22;24282;48.400;10.808;2023-04-25T07:08:03;8.90;74.30
38514;DHT22;24282;48.400;10.808;2023-04-25T07:10:29;8.90;74.20
38514;DHT22;24282;48.400;10.808;2023-04-25T07:12:56;8.90;74.20
38514;DHT22;24282;48.400;10.808;2023-04-25T07:15:22;9.00;74.10
38514;DHT22;24282;48.400;10.808;2023-04-25T07:17:48;9.00;74.20
38514;DHT22;24282;48.400;10.808;2023-04-25T07:20:14;9.00;74.50
38514;DHT22;24282;48.400;10.808;2023-04-25T07:22:41;9.00;74.70
38514;DHT22;24282;48.400;10.808;2023-04-25T07:25:08;9.00;74.90
38514;DHT22;24282;48.400;10.808;2023-04-25T07:27:34;9.10;74.50
38514;DHT22;24282;48.400;10.808;2023-04-25T07:30:13;9.10;74.40
38514;DHT22;24282;48.400;10.808;2023-04-25T07:32:39;9.30;71.70
38514;DHT22;24282;48.400;10.808;2023-04-25T07:35:05;9.30;72.40
38514;DHT22;24282;48.400;10.808;2023-04-25T07:37:33;9.30;73.00
38514;DHT22;24282;48.400;10.808;2023-04-25T07:40:05;9.30;72.90
38514;DHT22;24282;48.400;10.808;2023-04-25T07:42:32;9.40;72.70
38514;DHT22;24282;48.400;10.808;2023-04-25T07:44:58;9.40;72.30
38514;DHT22;24282;48.400;10.808;2023-04-25T07:47:23;9.50;73.10
38514;DHT22;24282;48.400;10.808;2023-04-25T07:49:51;9.70;71.50
38514;DHT22;24282;48.400;10.808;2023-04-25T07:52:17;9.70;71.80
38514;DHT22;24282;48.400;10.808;2023-04-25T07:54:48;9.80;72.20
38514;DHT22;24282;48.400;10.808;2023-04-25T07:57:19;9.90;72.30
38514;DHT22;24282;48.400;10.808;2023-04-25T07:59:47;10.00;71.90
38514;DHT22;24282;48.400;10.808;2023-04-25T08:02:13;10.10;69.30
38514;DHT22;24282;48.400;10.808;2023-04-25T08:04:39;10.10;69.40
38514;DHT22;24282;48.400;10.808;2023-04-25T08:07:07;10.20;68.80
38514;DHT22;24282;48.400;10.808;2023-04-25T08:09:45;10.30;67.10
38514;DHT22;24282;48.400;10.808;2023-04-25T08:12:18;10.30;67.00
38514;DHT22;24282;48.400;10.808;2023-04-25T08:14:44;10.50;66.50
38514;DHT22;24282;48.400;10.808;2023-04-25T08:17:10;10.50;66.00
38514;DHT22;24282;48.400;10.808;2023-04-25T08:19:40;10.50;66.90
38514;DHT22;24282;48.400;10.808;2023-04-25T08:22:07;10.50;63.40
38514;DHT22;24282;48.400;10.808;2023-04-25T08:24:44;10.50;64.50
38514;DHT22;24282;48.400;10.808;2023-04-25T08:27:11;10.70;63.80
38514;DHT22;24282;48.400;10.808;2023-04-25T08:29:37;10.80;63.70
38514;DHT22;24282;48.400;10.808;2023-04-25T08:32:03;11.00;64.90
38514;DHT22;24282;48.400;10.808;2023-04-25T08:34:30;11.20;62.20
38514;DHT22;24282;48.400;10.808;2023-04-25T08:36:59;11.40;62.40
38514;DHT22;24282;48.400;10.808;2023-04-25T08:39:51;11.60;61.40
38514;DHT22;24282;48.400;10.808;2023-04-25T08:42:38;11.90;59.20
38514;DHT22;24282;48.400;10.808;2023-04-25T08:45:06;11.90;58.60
38514;DHT22;24282;48.400;10.808;2023-04-25T08:47:38;11.80;59.20
38514;DHT22;24282;48.400;10.808;2023-04-25T08:50:05;11.80;59.80
38514;DHT22;24282;48.400;10.808;2023-04-25T08:52:37;11.70;59.60
38514;DHT22;24282;48.400;10.808;2023-04-25T08:55:04;11.60;59.10
38514;DHT22;24282;48.400;10.808;2023-04-25T08:57:31;11.40;60.50
38514;DHT22;24282;48.400;10.808;2023-04-25T08:59:57;11.20;62.00
38514;DHT22;24282;48.400;10.808;2023-04-25T09:02:25;11.20;62.20
38514;DHT22;24282;48.400;10.808;2023-04-25T09:04:52;11.20;61.50
38514;DHT22;24282;48.400;10.808;2023-04-25T09:07:20;11.30;61.40
38514;DHT22;24282;48.400;10.808;2023-04-25T09:09:47;11.40;62.00
38514;DHT22;24282;48.400;10.808;2023-04-25T09:12:18;11.50;62.30
38514;DHT22;24282;48.400;10.808;2023-04-25T09:17:55;11.70;59.70
38514;DHT22;24282;48.400;10.808;2023-04-25T09:20:22;11.60;59.70
38514;DHT22;24282;48.400;10.808;2023-04-25T09:22:47;11.50;60.80
38514;DHT22;24282;48.400;10.808;2023-04-25T09:25:14;11.50;59.50
38514;DHT22;24282;48.400;10.808;2023-04-25T09:27:54;11.40;58.90
38514;DHT22;24282;48.400;10.808;2023-04-25T09:30:33;11.40;59.50
38514;DHT22;24282;48.400;10.808;2023-04-25T09:33:10;11.20;62.10
38514;DHT22;24282;48.400;10.808;2023-04-25T09:35:39;11.00;63.80
38514;DHT22;24282;48.400;10.808;2023-04-25T09:38:13;10.90;66.30
38514;DHT22;24282;48.400;10.808;2023-04-25T09:40:52;10.70;68.60
38514;DHT22;24282;48.400;10.808;2023-04-25T09:43:45;10.50;70.50
38514;DHT22;24282;48.400;10.808;2023-04-25T09:46:12;10.10;71.30
38514;DHT22;24282;48.400;10.808;2023-04-25T09:48:48;10.00;72.70
38514;DHT22;24282;48.400;10.808;2023-04-25T09:51:16;10.00;72.80
38514;DHT22;24282;48.400;10.808;2023-04-25T09:53:46;9.90;75.90
38514;DHT22;24282;48.400;10.808;2023-04-25T09:56:38;9.90;75.90
38514;DHT22;24282;48.400;10.808;2023-04-25T09:59:07;9.80;75.30
38514;DHT22;24282;48.400;10.808;2023-04-25T10:01:34;9.60;73.40
38514;DHT22;24282;48.400;10.808;2023-04-25T10:04:10;9.50;73.80
38514;DHT22;24282;48.400;10.808;2023-04-25T10:06:49;9.40;74.60
38514;DHT22;24282;48.400;10.808;2023-04-25T10:09:20;9.20;73.40
38514;DHT22;24282;48.400;10.808;2023-04-25T10:11:46;9.10;75.70
38514;DHT22;24282;48.400;10.808;2023-04-25T10:14:16;8.90;75.50
38514;DHT22;24282;48.400;10.808;2023-04-25T10:16:42;8.90;75.70
38514;DHT22;24282;48.400;10.808;2023-04-25T10:19:10;8.90;75.60
38514;DHT22;24282;48.400;10.808;2023-04-25T10:21:43;9.00;77.70
38514;DHT22;24282;48.400;10.808;2023-04-25T10:24:11;9.00;76.00
38514;DHT22;24282;48.400;10.808;2023-04-25T10:26:37;9.20;74.50
38514;DHT22;24282;48.400;10.808;2023-04-25T10:29:03;9.20;74.90
38514;DHT22;24282;48.400;10.808;2023-04-25T10:31:30;9.20;76.60
38514;DHT22;24282;48.400;10.808;2023-04-25T10:33:56;9.20;77.50
38514;DHT22;24282;48.400;10.808;2023-04-25T10:36:23;9.40;73.40
38514;DHT22;24282;48.400;10.808;2023-04-25T10:38:50;9.30;73.00
38514;DHT22;24282;48.400;10.808;2023-04-25T10:41:18;9.20;74.20
38514;DHT22;24282;48.400;10.808;2023-04-25T10:43:48;9.30;70.80
38514;DHT22;24282;48.400;10.808;2023-04-25T10:46:29;9.30;73.10
38514;DHT22;24282;48.400;10.808;2023-04-25T10:48:58;9.40;73.40
38514;DHT22;24282;48.400;10.808;2023-04-25T10:51:29;9.40;74.50
38514;DHT22;24282;48.400;10.808;2023-04-25T10:56:53;9.70;76.00
38514;DHT22;24282;48.400;10.808;2023-04-25T10:59:19;9.70;75.80
38514;DHT22;24282;48.400;10.808;2023-04-25T11:01:49;9.90;76.50
38514;DHT22;24282;48.400;10.808;2023-04-25T11:04:21;10.00;75.10
38514;DHT22;24282;48.400;10.808;2023-04-25T11:07:07;10.00;75.70
38514;DHT22;24282;48.400;10.808;2023-04-25T11:09:39;10.20;75.80
38514;DHT22;24282;48.400;10.808;2023-04-25T11:12:07;10.20;74.40
38514;DHT22;24282;48.400;10.808;2023-04-25T11:14:33;10.30;75.50
38514;DHT22;24282;48.400;10.808;2023-04-25T11:17:00;10.40;76.10
38514;DHT22;24282;48.400;10.808;2023-04-25T11:19:27;10.50;75.10
38514;DHT22;24282;48.400;10.808;2023-04-25T11:22:00;10.60;74.00
38514;DHT22;24282;48.400;10.808;2023-04-25T11:24:30;10.70;73.40
38514;DHT22;24282;48.400;10.808;2023-04-25T11:26:58;10.80;71.00
38514;DHT22;24282;48.400;10.808;2023-04-25T11:29:28;10.90;69.80
38514;DHT22;24282;48.400;10.808;2023-04-25T11:31:55;10.70;72.90
38514;DHT22;24282;48.400;10.808;2023-04-25T11:34:28;10.50;73.00
38514;DHT22;24282;48.400;10.808;2023-04-25T11:36:56;10.20;70.10
38514;DHT22;24282;48.400;10.808;2023-04-25T11:39:24;10.00;71.50
38514;DHT22;24282;48.400;10.808;2023-04-25T11:41:50;9.80;72.30
38514;DHT22;24282;48.400;10.808;2023-04-25T11:44:17;9.50;74.10
38514;DHT22;24282;48.400;10.808;2023-04-25T11:46:44;9.20;75.00
38514;DHT22;24282;48.400;10.808;2023-04-25T11:49:10;9.10;76.30
38514;DHT22;24282;48.400;10.808;2023-04-25T11:51:39;8.90;77.10
38514;DHT22;24282;48.400;10.808;2023-04-25T11:54:06;8.80;77.50
38514;DHT22;24282;48.400;10.808;2023-04-25T11:56:32;8.70;78.40
38514;DHT22;24282;48.400;10.808;2023-04-25T11:59:05;8.70;78.90
38514;DHT22;24282;48.400;10.808;2023-04-25T12:01:32;8.70;79.70
38514;DHT22;24282;48.400;10.808;2023-04-25T12:04:09;8.70;80.50
38514;DHT22;24282;48.400;10.808;2023-04-25T12:06:39;8.80;80.80
38514;DHT22;24282;48.400;10.808;2023-04-25T12:09:10;8.80;81.60
38514;DHT22;24282;48.400;10.808;2023-04-25T12:11:47;8.80;78.20
38514;DHT22;24282;48.400;10.808;2023-04-25T12:14:28;8.70;78.70
38514;DHT22;24282;48.400;10.808;2023-04-25T12:16:59;8.80;78.40
38514;DHT22;24282;48.400;10.808;2023-04-25T12:19:25;8.60;78.90
38514;DHT22;24282;48.400;10.808;2023-04-25T12:21:52;8.60;79.40
38514;DHT22;24282;48.400;10.808;2023-04-25T12:24:20;8.50;79.80
38514;DHT22;24282;48.400;10.808;2023-04-25T12:26:49;8.50;79.40
38514;DHT22;24282;48.400;10.808;2023-04-25T12:29:17;8.50;78.50
38514;DHT22;24282;48.400;10.808;2023-04-25T12:31:43;8.50;78.90
38514;DHT22;24282;48.400;10.808;2023-04-25T12:34:08;8.40;78.60
38514;DHT22;24282;48.400;10.808;2023-04-25T12:36:34;8.40;79.50
38514;DHT22;24282;48.400;10.808;2023-04-25T12:39:00;8.30;79.00
38514;DHT22;24282;48.400;10.808;2023-04-25T12:41:30;8.30;79.10
38514;DHT22;24282;48.400;10.808;2023-04-25T12:43:55;8.20;79.90
38514;DHT22;24282;48.400;10.808;2023-04-25T12:46:21;8.20;80.10
38514;DHT22;24282;48.400;10.808;2023-04-25T12:48:48;8.20;80.50
38514;DHT22;24282;48.400;10.808;2023-04-25T12:51:14;8.20;81.00
38514;DHT22;24282;48.400;10.808;2023-04-25T12:53:40;8.30;80.50
38514;DHT22;24282;48.400;10.808;2023-04-25T12:56:09;8.30;80.40
38514;DHT22;24282;48.400;10.808;2023-04-25T12:58:35;8.30;79.90
38514;DHT22;24282;48.400;10.808;2023-04-25T13:01:01;8.40;79.80
38514;DHT22;24282;48.400;10.808;2023-04-25T13:03:26;8.50;79.80
38514;DHT22;24282;48.400;10.808;2023-04-25T13:05:52;8.50;79.70
38514;DHT22;24282;48.400;10.808;2023-04-25T13:08:18;8.60;80.50
38514;DHT22;24282;48.400;10.808;2023-04-25T13:10:44;8.70;80.90
38514;DHT22;24282;48.400;10.808;2023-04-25T13:13:10;8.90;79.80
38514;DHT22;24282;48.400;10.808;2023-04-25T13:15:36;9.00;80.20
38514;DHT22;24282;48.400;10.808;2023-04-25T13:18:03;9.00;80.00
38514;DHT22;24282;48.400;10.808;2023-04-25T13:20:29;9.00;79.90
38514;DHT22;24282;48.400;10.808;2023-04-25T13:22:55;9.20;80.40
38514;DHT22;24282;48.400;10.808;2023-04-25T13:25:21;9.20;80.30
38514;DHT22;24282;48.400;10.808;2023-04-25T13:27:47;9.30;80.50
38514;DHT22;24282;48.400;10.808;2023-04-25T13:30:13;9.30;80.20
38514;DHT22;24282;48.400;10.808;2023-04-25T13:32:39;9.20;80.50
38514;DHT22;24282;48.400;10.808;2023-04-25T13:35:14;9.20;80.50
38514;DHT22;24282;48.400;10.808;2023-04-25T13:37:40;9.20;80.50
38514;DHT22;24282;48.400;10.808;2023-04-25T13:40:09;9.10;80.40
38514;DHT22;24282;48.400;10.808;2023-04-25T13:42:37;9.00;81.00
38514;DHT22;24282;48.400;10.808;2023-04-25T13:45:03;9.00;81.30
38514;DHT22;24282;48.400;10.808;2023-04-25T13:47:29;9.00;81.30
38514;DHT22;24282;48.400;10.808;2023-04-25T13:49:56;9.00;81.10
38514;DHT22;24282;48.400;10.808;2023-04-25T13:52:22;9.00;81.20
38514;DHT22;24282;48.400;10.808;2023-04-25T13:54:49;8.90;80.90
38514;DHT22;24282;48.400;10.808;2023-04-25T13:57:16;8.80;81.60
38514;DHT22;24282;48.400;10.808;2023-04-25T13:59:41;8.90;81.30
38514;DHT22;24282;48.400;10.808;2023-04-25T14:02:07;8.80;81.00
38514;DHT22;24282;48.400;10.808;2023-04-25T14:04:33;8.80;79.80
38514;DHT22;24282;48.400;10.808;2023-04-25T14:06:59;8.80;80.00
38514;DHT22;24282;48.400;10.808;2023-04-25T14:09:25;8.80;80.50
38514;DHT22;24282;48.400;10.808;2023-04-25T14:11:52;8.80;80.80
38514;DHT22;24282;48.400;10.808;2023-04-25T14:14:19;8.90;81.50
38514;DHT22;24282;48.400;10.808;2023-04-25T14:16:46;8.80;80.30
38514;DHT22;24282;48.400;10.808;2023-04-25T14:19:14;8.80;80.70
38514;DHT22;24282;48.400;10.808;2023-04-25T14:21:39;8.70;80.80
38514;DHT22;24282;48.400;10.808;2023-04-25T14:24:06;8.70;80.80
38514;DHT22;24282;48.400;10.808;2023-04-25T14:26:33;8.70;80.90
38514;DHT22;24282;48.400;10.808;2023-04-25T14:29:00;8.90;80.30
38514;DHT22;24282;48.400;10.808;2023-04-25T14:31:25;8.90;79.90
38514;DHT22;24282;48.400;10.808;2023-04-25T14:33:51;9.00;80.80
38514;DHT22;24282;48.400;10.808;2023-04-25T14:36:17;9.00;80.80
38514;DHT22;24282;48.400;10.808;2023-04-25T14:38:43;9.10;81.10
38514;DHT22;24282;48.400;10.808;2023-04-25T14:41:09;9.10;82.00
38514;DHT22;24282;48.400;10.808;2023-04-25T14:43:36;9.20;79.40
38514;DHT22;24282;48.400;10.808;2023-04-25T14:46:02;9.20;80.10
38514;DHT22;24282;48.400;10.808;2023-04-25T14:48:29;9.20;80.10
38514;DHT22;24282;48.400;10.808;2023-04-25T14:50:54;9.00;80.90
38514;DHT22;24282;48.400;10.808;2023-04-25T14:53:22;9.10;81.30
38514;DHT22;24282;48.400;10.808;2023-04-25T14:55:48;9.10;81.20
38514;DHT22;24282;48.400;10.808;2023-04-25T14:58:14;9.00;82.00
38514;DHT22;24282;48.400;10.808;2023-04-25T15:00:40;9.10;81.60
38514;DHT22;24282;48.400;10.808;2023-04-25T15:03:06;9.10;81.70
38514;DHT22;24282;48.400;10.808;2023-04-25T15:05:33;9.10;80.70
38514;DHT22;24282;48.400;10.808;2023-04-25T15:07:59;9.10;81.50
38514;DHT22;24282;48.400;10.808;2023-04-25T15:10:25;9.10;81.60
38514;DHT22;24282;48.400;10.808;2023-04-25T15:12:51;9.20;81.70
38514;DHT22;24282;48.400;10.808;2023-04-25T15:15:19;9.20;81.00
38514;DHT22;24282;48.400;10.808;2023-04-25T15:17:44;9.20;80.90
38514;DHT22;24282;48.400;10.808;2023-04-25T15:20:12;9.20;81.50
38514;DHT22;24282;48.400;10.808;2023-04-25T15:22:42;9.30;80.50
38514;DHT22;24282;48.400;10.808;2023-04-25T15:25:09;9.30;80.70
38514;DHT22;24282;48.400;10.808;2023-04-25T15:27:36;9.40;81.60
38514;DHT22;24282;48.400;10.808;2023-04-25T15:30:10;9.40;80.40
38514;DHT22;24282;48.400;10.808;2023-04-25T15:32:46;9.40;80.00
38514;DHT22;24282;48.400;10.808;2023-04-25T15:35:13;9.50;81.10
38514;DHT22;24282;48.400;10.808;2023-04-25T15:37:39;9.50;81.70
38514;DHT22;24282;48.400;10.808;2023-04-25T15:40:11;9.50;81.30
38514;DHT22;24282;48.400;10.808;2023-04-25T15:42:44;9.50;80.80
38514;DHT22;24282;48.400;10.808;2023-04-25T15:45:16;9.60;80.80